sensor_id;sensor_type;location;lat;lon;timestamp;P1;durP1;ratioP1;P2;durP2;ratioP2
10845;SDS011;5476;51.540;7.186;2023-06-22T00:02:23;11.65;;;7.32;;
10845;SDS011;5476;51.540;7.186;2023-06-22T00:05:04;8.30;;;6.55;;
10845;SDS011;5476;51.540;7.186;2023-06-22T00:07:39;7.15;;;5.90;;
10845;SDS011;5476;51.540;7.186;2023-06-22T00:10:43;18.75;;;16.77;;
10845;SDS011;5476;51.540;7.186;2023-06-22T00:13:18;16.77;;;14.30;;
10845;SDS011;5476;51.540;7.186;2023-06-22T00:15:51;12.45;;;9.40;;
10845;SDS011;5476;51.540;7.186;2023-06-22T00:18:18;8.68;;;7.78;;
10845;SDS011;5476;51.540;7.186;2023-06-22T00:20:46;10.55;;;9.07;;
10845;SDS011;5476;51.540;7.186;2023-06-22T00:23:14;10.38;;;7.90;;
10845;SDS011;5476;51.540;7.186;2023-06-22T00:25:42;9.55;;;7.50;;
10845;SDS011;5476;51.540;7.186;2023-06-22T00:31:38;57.92;;;50.13;;
10845;SDS011;5476;51.540;7.186;2023-06-22T00:34:39;10.10;;;7.90;;
10845;SDS011;5476;51.540;7.186;2023-06-22T00:37:40;9.70;;;7.38;;
10845;SDS011;5476;51.540;7.186;2023-06-22T00:40:56;9.15;;;8.18;;
10845;SDS011;5476;51.540;7.186;2023-06-22T00:44:44;9.60;;;7.70;;
10845;SDS011;5476;51.540;7.186;2023-06-22T00:47:51;10.23;;;7.82;;
10845;SDS011;5476;51.540;7.186;2023-06-22T00:51:05;11.20;;;9.13;;
10845;SDS011;5476;51.540;7.186;2023-06-22T00:58:09;10.43;;;8.68;;
10845;SDS011;5476;51.540;7.186;2023-06-22T01:01:59;8.93;;;8.05;;
10845;SDS011;5476;51.540;7.186;2023-06-22T01:04:53;9.68;;;8.65;;
10845;SDS011;5476;51.540;7.186;2023-06-22T01:12:08;10.52;;;8.90;;
10845;SDS011;5476;51.540;7.186;2023-06-22T01:29:04;11.00;;;9.90;;
10845;SDS011;5476;51.540;7.186;2023-06-22T01:32:13;11.32;;;10.10;;
10845;SDS011;5476;51.540;7.186;2023-06-22T01:37:57;12.70;;;10.57;;
10845;SDS011;5476;51.540;7.186;2023-06-22T01:47:45;11.70;;;10.60;;
10845;SDS011;5476;51.540;7.186;2023-06-22T01:51:01;15.30;;;11.05;;
10845;SDS011;5476;51.540;7.186;2023-06-22T01:54:25;13.98;;;11.32;;
10845;SDS011;5476;51.540;7.186;2023-06-22T02:00:40;12.18;;;10.98;;
10845;SDS011;5476;51.540;7.186;2023-06-22T02:06:53;12.50;;;11.30;;
10845;SDS011;5476;51.540;7.186;2023-06-22T02:13:04;11.70;;;10.50;;
10845;SDS011;5476;51.540;7.186;2023-06-22T02:15:55;13.30;;;11.88;;
10845;SDS011;5476;51.540;7.186;2023-06-22T02:32:02;12.15;;;10.85;;
10845;SDS011;5476;51.540;7.186;2023-06-22T02:34:55;11.85;;;10.65;;
10845;SDS011;5476;51.540;7.186;2023-06-22T02:37:48;11.65;;;10.45;;
10845;SDS011;5476;51.540;7.186;2023-06-22T02:41:26;12.20;;;10.90;;
10845;SDS011;5476;51.540;7.186;2023-06-22T02:44:38;12.82;;;11.40;;
10845;SDS011;5476;51.540;7.186;2023-06-22T02:51:18;12.40;;;10.65;;
10845;SDS011;5476;51.540;7.186;2023-06-22T02:54:16;13.13;;;10.75;;
10845;SDS011;5476;51.540;7.186;2023-06-22T03:04:51;13.55;;;12.15;;
10845;SDS011;5476;51.540;7.186;2023-06-22T03:08:04;15.38;;;12.05;;
10845;SDS011;5476;51.540;7.186;2023-06-22T03:14:37;12.35;;;11.05;;
10845;SDS011;5476;51.540;7.186;2023-06-22T03:17:27;13.75;;;12.32;;
10845;SDS011;5476;51.540;7.186;2023-06-22T03:23:41;15.85;;;14.18;;
10845;SDS011;5476;51.540;7.186;2023-06-22T03:29:41;16.60;;;14.95;;
10845;SDS011;5476;51.540;7.186;2023-06-22T03:32:22;16.08;;;14.48;;
10845;SDS011;5476;51.540;7.186;2023-06-22T03:35:28;16.45;;;14.75;;
10845;SDS011;5476;51.540;7.186;2023-06-22T03:38:47;16.77;;;15.00;;
10845;SDS011;5476;51.540;7.186;2023-06-22T03:41:33;16.92;;;15.25;;
10845;SDS011;5476;51.540;7.186;2023-06-22T03:44:27;16.83;;;15.13;;
10845;SDS011;5476;51.540;7.186;2023-06-22T03:46:58;18.30;;;16.00;;
10845;SDS011;5476;51.540;7.186;2023-06-22T03:49:36;17.42;;;15.73;;
10845;SDS011;5476;51.540;7.186;2023-06-22T03:52:16;16.88;;;15.27;;
10845;SDS011;5476;51.540;7.186;2023-06-22T03:55:07;17.73;;;15.85;;
10845;SDS011;5476;51.540;7.186;2023-06-22T03:58:07;16.33;;;14.63;;
10845;SDS011;5476;51.540;7.186;2023-06-22T04:01:10;16.80;;;15.20;;
10845;SDS011;5476;51.540;7.186;2023-06-22T04:03:57;18.02;;;15.57;;
10845;SDS011;5476;51.540;7.186;2023-06-22T04:06:35;18.23;;;16.05;;
10845;SDS011;5476;51.540;7.186;2023-06-22T04:09:15;17.80;;;15.25;;
10845;SDS011;5476;51.540;7.186;2023-06-22T04:11:49;17.23;;;15.43;;
10845;SDS011;5476;51.540;7.186;2023-06-22T04:14:28;19.48;;;15.75;;
10845;SDS011;5476;51.540;7.186;2023-06-22T04:17:31;16.80;;;15.05;;
10845;SDS011;5476;51.540;7.186;2023-06-22T04:20:55;17.13;;;15.40;;
10845;SDS011;5476;51.540;7.186;2023-06-22T04:23:45;17.20;;;15.48;;
10845;SDS011;5476;51.540;7.186;2023-06-22T04:26:22;18.35;;;15.48;;
10845;SDS011;5476;51.540;7.186;2023-06-22T04:29:13;15.65;;;14.20;;
10845;SDS011;5476;51.540;7.186;2023-06-22T04:31:49;17.17;;;15.48;;
10845;SDS011;5476;51.540;7.186;2023-06-22T04:35:03;19.20;;;15.68;;
10845;SDS011;5476;51.540;7.186;2023-06-22T04:37:49;17.23;;;15.40;;
10845;SDS011;5476;51.540;7.186;2023-06-22T04:41:06;17.02;;;15.32;;
10845;SDS011;5476;51.540;7.186;2023-06-22T04:44:04;18.15;;;15.45;;
10845;SDS011;5476;51.540;7.186;2023-06-22T04:47:07;17.70;;;14.90;;
10845;SDS011;5476;51.540;7.186;2023-06-22T04:53:19;17.90;;;14.48;;
10845;SDS011;5476;51.540;7.186;2023-06-22T04:56:23;17.02;;;15.07;;
10845;SDS011;5476;51.540;7.186;2023-06-22T04:59:29;17.92;;;15.52;;
10845;SDS011;5476;51.540;7.186;2023-06-22T05:05:15;17.02;;;15.10;;
10845;SDS011;5476;51.540;7.186;2023-06-22T05:08:25;17.10;;;15.40;;
10845;SDS011;5476;51.540;7.186;2023-06-22T05:11:42;17.75;;;15.98;;
10845;SDS011;5476;51.540;7.186;2023-06-22T05:14:47;17.33;;;14.15;;
10845;SDS011;5476;51.540;7.186;2023-06-22T05:17:53;16.42;;;14.73;;
10845;SDS011;5476;51.540;7.186;2023-06-22T05:21:34;16.90;;;15.18;;
10845;SDS011;5476;51.540;7.186;2023-06-22T05:32:34;18.95;;;16.95;;
10845;SDS011;5476;51.540;7.186;2023-06-22T05:35:56;18.35;;;15.73;;
10845;SDS011;5476;51.540;7.186;2023-06-22T05:39:18;18.52;;;15.23;;
10845;SDS011;5476;51.540;7.186;2023-06-22T05:42:17;17.08;;;15.48;;
10845;SDS011;5476;51.540;7.186;2023-06-22T05:45:59;17.35;;;15.48;;
10845;SDS011;5476;51.540;7.186;2023-06-22T05:48:52;17.80;;;15.38;;
10845;SDS011;5476;51.540;7.186;2023-06-22T05:52:05;18.55;;;15.43;;
10845;SDS011;5476;51.540;7.186;2023-06-22T05:55:10;20.10;;;16.00;;
10845;SDS011;5476;51.540;7.186;2023-06-22T05:57:56;18.35;;;16.23;;
10845;SDS011;5476;51.540;7.186;2023-06-22T06:00:37;17.60;;;15.82;;
10845;SDS011;5476;51.540;7.186;2023-06-22T06:03:11;22.88;;;16.52;;
10845;SDS011;5476;51.540;7.186;2023-06-22T06:05:43;17.42;;;15.52;;
10845;SDS011;5476;51.540;7.186;2023-06-22T06:08:11;18.42;;;16.33;;
10845;SDS011;5476;51.540;7.186;2023-06-22T06:10:38;16.52;;;14.77;;
10845;SDS011;5476;51.540;7.186;2023-06-22T06:13:10;19.30;;;15.40;;
10845;SDS011;5476;51.540;7.186;2023-06-22T06:15:51;19.33;;;15.63;;
10845;SDS011;5476;51.540;7.186;2023-06-22T06:18:20;18.52;;;16.02;;
10845;SDS011;5476;51.540;7.186;2023-06-22T06:20:49;17.45;;;15.20;;
10845;SDS011;5476;51.540;7.186;2023-06-22T06:23:33;17.63;;;15.68;;
10845;SDS011;5476;51.540;7.186;2023-06-22T06:26:00;18.75;;;16.35;;
10845;SDS011;5476;51.540;7.186;2023-06-22T06:28:32;17.55;;;15.57;;
10845;SDS011;5476;51.540;7.186;2023-06-22T06:31:05;19.00;;;17.00;;
10845;SDS011;5476;51.540;7.186;2023-06-22T06:34:21;19.60;;;14.43;;
10845;SDS011;5476;51.540;7.186;2023-06-22T06:36:56;19.58;;;15.70;;
10845;SDS011;5476;51.540;7.186;2023-06-22T06:39:39;18.10;;;16.27;;
10845;SDS011;5476;51.540;7.186;2023-06-22T06:42:07;19.27;;;16.20;;
10845;SDS011;5476;51.540;7.186;2023-06-22T06:47:26;21.10;;;15.45;;
10845;SDS011;5476;51.540;7.186;2023-06-22T06:49:54;20.45;;;16.08;;
10845;SDS011;5476;51.540;7.186;2023-06-22T06:52:23;19.30;;;16.08;;
10845;SDS011;5476;51.540;7.186;2023-06-22T06:54:51;24.70;;;20.85;;
10845;SDS011;5476;51.540;7.186;2023-06-22T06:57:18;16.98;;;15.02;;
10845;SDS011;5476;51.540;7.186;2023-06-22T06:59:46;22.52;;;17.98;;
10845;SDS011;5476;51.540;7.186;2023-06-22T07:02:14;27.08;;;20.98;;
10845;SDS011;5476;51.540;7.186;2023-06-22T07:04:41;62.58;;;49.40;;
10845;SDS011;5476;51.540;7.186;2023-06-22T07:10:20;20.48;;;15.77;;
10845;SDS011;5476;51.540;7.186;2023-06-22T07:12:54;17.33;;;15.43;;
10845;SDS011;5476;51.540;7.186;2023-06-22T07:15:22;16.42;;;14.70;;
10845;SDS011;5476;51.540;7.186;2023-06-22T07:17:52;17.67;;;15.63;;
10845;SDS011;5476;51.540;7.186;2023-06-22T07:20:20;17.38;;;15.35;;
10845;SDS011;5476;51.540;7.186;2023-06-22T07:22:49;18.92;;;15.20;;
10845;SDS011;5476;51.540;7.186;2023-06-22T07:25:16;15.88;;;14.25;;
10845;SDS011;5476;51.540;7.186;2023-06-22T07:27:46;16.67;;;14.98;;
10845;SDS011;5476;51.540;7.186;2023-06-22T07:30:35;19.30;;;14.88;;
10845;SDS011;5476;51.540;7.186;2023-06-22T07:33:16;17.05;;;15.10;;
10845;SDS011;5476;51.540;7.186;2023-06-22T07:35:46;18.98;;;14.48;;
10845;SDS011;5476;51.540;7.186;2023-06-22T07:38:38;17.50;;;14.65;;
10845;SDS011;5476;51.540;7.186;2023-06-22T07:41:09;16.98;;;14.80;;
10845;SDS011;5476;51.540;7.186;2023-06-22T07:43:40;16.90;;;14.80;;
10845;SDS011;5476;51.540;7.186;2023-06-22T07:46:17;17.10;;;14.52;;
10845;SDS011;5476;51.540;7.186;2023-06-22T07:48:57;19.27;;;15.27;;
10845;SDS011;5476;51.540;7.186;2023-06-22T07:51:39;21.17;;;14.40;;
10845;SDS011;5476;51.540;7.186;2023-06-22T07:54:08;19.92;;;15.35;;
10845;SDS011;5476;51.540;7.186;2023-06-22T07:56:37;17.83;;;15.27;;
10845;SDS011;5476;51.540;7.186;2023-06-22T07:59:07;17.90;;;15.38;;
10845;SDS011;5476;51.540;7.186;2023-06-22T08:01:48;18.17;;;16.10;;
10845;SDS011;5476;51.540;7.186;2023-06-22T08:04:42;17.63;;;15.73;;
10845;SDS011;5476;51.540;7.186;2023-06-22T08:07:21;18.70;;;16.45;;
10845;SDS011;5476;51.540;7.186;2023-06-22T08:09:53;18.70;;;16.52;;
10845;SDS011;5476;51.540;7.186;2023-06-22T08:12:25;18.65;;;16.42;;
10845;SDS011;5476;51.540;7.186;2023-06-22T08:15:08;19.13;;;17.10;;
10845;SDS011;5476;51.540;7.186;2023-06-22T08:17:39;21.90;;;18.25;;
10845;SDS011;5476;51.540;7.186;2023-06-22T08:20:07;18.70;;;16.85;;
10845;SDS011;5476;51.540;7.186;2023-06-22T08:22:37;21.77;;;18.95;;
10845;SDS011;5476;51.540;7.186;2023-06-22T08:25:06;21.60;;;19.38;;
10845;SDS011;5476;51.540;7.186;2023-06-22T08:27:44;20.77;;;18.20;;
10845;SDS011;5476;51.540;7.186;2023-06-22T08:30:13;21.80;;;18.67;;
10845;SDS011;5476;51.540;7.186;2023-06-22T08:33:12;21.77;;;19.50;;
10845;SDS011;5476;51.540;7.186;2023-06-22T08:35:53;22.08;;;19.50;;
10845;SDS011;5476;51.540;7.186;2023-06-22T08:38:20;20.15;;;18.02;;
10845;SDS011;5476;51.540;7.186;2023-06-22T08:40:49;19.83;;;17.88;;
10845;SDS011;5476;51.540;7.186;2023-06-22T08:43:27;21.30;;;18.95;;
10845;SDS011;5476;51.540;7.186;2023-06-22T08:46:12;19.73;;;17.85;;
10845;SDS011;5476;51.540;7.186;2023-06-22T08:48:39;20.13;;;18.08;;
10845;SDS011;5476;51.540;7.186;2023-06-22T08:51:06;20.40;;;18.25;;
10845;SDS011;5476;51.540;7.186;2023-06-22T08:53:34;19.70;;;17.70;;
10845;SDS011;5476;51.540;7.186;2023-06-22T08:56:03;21.08;;;18.15;;
10845;SDS011;5476;51.540;7.186;2023-06-22T08:58:34;19.02;;;17.02;;
10845;SDS011;5476;51.540;7.186;2023-06-22T09:01:01;19.58;;;17.55;;
10845;SDS011;5476;51.540;7.186;2023-06-22T09:03:29;19.25;;;17.35;;
10845;SDS011;5476;51.540;7.186;2023-06-22T09:05:57;18.42;;;16.52;;
10845;SDS011;5476;51.540;7.186;2023-06-22T09:08:31;19.98;;;17.75;;
10845;SDS011;5476;51.540;7.186;2023-06-22T09:11:06;19.13;;;16.55;;
10845;SDS011;5476;51.540;7.186;2023-06-22T09:13:36;18.20;;;16.15;;
10845;SDS011;5476;51.540;7.186;2023-06-22T09:16:04;18.83;;;17.02;;
10845;SDS011;5476;51.540;7.186;2023-06-22T09:18:36;17.25;;;15.63;;
10845;SDS011;5476;51.540;7.186;2023-06-22T09:21:13;17.80;;;15.65;;
10845;SDS011;5476;51.540;7.186;2023-06-22T09:23:47;17.73;;;15.60;;
10845;SDS011;5476;51.540;7.186;2023-06-22T09:26:21;18.02;;;16.38;;
10845;SDS011;5476;51.540;7.186;2023-06-22T09:29:17;19.02;;;16.33;;
10845;SDS011;5476;51.540;7.186;2023-06-22T09:31:49;17.85;;;15.95;;
10845;SDS011;5476;51.540;7.186;2023-06-22T09:34:38;18.65;;;16.67;;
10845;SDS011;5476;51.540;7.186;2023-06-22T09:37:06;19.15;;;17.13;;
10845;SDS011;5476;51.540;7.186;2023-06-22T09:39:37;20.35;;;17.50;;
10845;SDS011;5476;51.540;7.186;2023-06-22T09:42:12;18.40;;;16.45;;
10845;SDS011;5476;51.540;7.186;2023-06-22T09:44:42;19.90;;;16.75;;
10845;SDS011;5476;51.540;7.186;2023-06-22T09:47:15;16.58;;;14.85;;
10845;SDS011;5476;51.540;7.186;2023-06-22T09:49:43;16.75;;;14.98;;
10845;SDS011;5476;51.540;7.186;2023-06-22T09:52:10;16.35;;;14.55;;
10845;SDS011;5476;51.540;7.186;2023-06-22T09:54:38;18.27;;;14.90;;
10845;SDS011;5476;51.540;7.186;2023-06-22T09:57:06;18.63;;;16.73;;
10845;SDS011;5476;51.540;7.186;2023-06-22T09:59:40;17.67;;;15.77;;
10845;SDS011;5476;51.540;7.186;2023-06-22T10:04:45;17.00;;;15.18;;
10845;SDS011;5476;51.540;7.186;2023-06-22T10:07:12;17.60;;;15.80;;
10845;SDS011;5476;51.540;7.186;2023-06-22T10:09:45;17.60;;;15.88;;
10845;SDS011;5476;51.540;7.186;2023-06-22T10:12:13;17.48;;;15.85;;
10845;SDS011;5476;51.540;7.186;2023-06-22T10:14:41;17.00;;;15.40;;
10845;SDS011;5476;51.540;7.186;2023-06-22T10:17:09;17.50;;;15.70;;
10845;SDS011;5476;51.540;7.186;2023-06-22T10:19:36;18.70;;;15.55;;
10845;SDS011;5476;51.540;7.186;2023-06-22T10:22:04;17.67;;;15.23;;
10845;SDS011;5476;51.540;7.186;2023-06-22T10:24:31;17.73;;;15.63;;
10845;SDS011;5476;51.540;7.186;2023-06-22T10:26:59;15.80;;;14.20;;
10845;SDS011;5476;51.540;7.186;2023-06-22T10:29:36;16.83;;;15.02;;
10845;SDS011;5476;51.540;7.186;2023-06-22T10:32:05;17.35;;;14.60;;
10845;SDS011;5476;51.540;7.186;2023-06-22T10:34:33;16.90;;;15.30;;
10845;SDS011;5476;51.540;7.186;2023-06-22T10:37:01;15.55;;;13.82;;
10845;SDS011;5476;51.540;7.186;2023-06-22T10:39:28;16.45;;;14.85;;
10845;SDS011;5476;51.540;7.186;2023-06-22T10:41:56;15.57;;;14.07;;
10845;SDS011;5476;51.540;7.186;2023-06-22T10:44:29;16.70;;;14.85;;
10845;SDS011;5476;51.540;7.186;2023-06-22T10:47:06;15.68;;;14.18;;
10845;SDS011;5476;51.540;7.186;2023-06-22T10:49:55;16.80;;;15.00;;
10845;SDS011;5476;51.540;7.186;2023-06-22T10:52:36;13.85;;;12.32;;
10845;SDS011;5476;51.540;7.186;2023-06-22T10:55:04;15.82;;;14.20;;
10845;SDS011;5476;51.540;7.186;2023-06-22T10:57:32;14.38;;;12.98;;
10845;SDS011;5476;51.540;7.186;2023-06-22T11:00:09;15.55;;;13.95;;
10845;SDS011;5476;51.540;7.186;2023-06-22T11:05:43;17.50;;;15.75;;
10845;SDS011;5476;51.540;7.186;2023-06-22T11:08:53;15.48;;;13.90;;
10845;SDS011;5476;51.540;7.186;2023-06-22T11:11:32;17.52;;;15.73;;
10845;SDS011;5476;51.540;7.186;2023-06-22T11:14:42;16.55;;;14.57;;
10845;SDS011;5476;51.540;7.186;2023-06-22T11:17:28;16.00;;;14.13;;
10845;SDS011;5476;51.540;7.186;2023-06-22T11:20:15;17.23;;;14.57;;
10845;SDS011;5476;51.540;7.186;2023-06-22T11:23:01;15.52;;;14.07;;
10845;SDS011;5476;51.540;7.186;2023-06-22T11:25:34;18.02;;;16.30;;
10845;SDS011;5476;51.540;7.186;2023-06-22T11:28:06;26.92;;;21.92;;
10845;SDS011;5476;51.540;7.186;2023-06-22T11:30:36;19.33;;;17.40;;
10845;SDS011;5476;51.540;7.186;2023-06-22T11:33:38;22.35;;;20.05;;
10845;SDS011;5476;51.540;7.186;2023-06-22T11:36:11;21.33;;;17.42;;
10845;SDS011;5476;51.540;7.186;2023-06-22T11:39:25;19.80;;;17.90;;
10845;SDS011;5476;51.540;7.186;2023-06-22T11:42:29;19.40;;;17.40;;
10845;SDS011;5476;51.540;7.186;2023-06-22T11:45:27;21.73;;;19.52;;
10845;SDS011;5476;51.540;7.186;2023-06-22T11:48:10;21.40;;;19.30;;
10845;SDS011;5476;51.540;7.186;2023-06-22T11:50:42;21.70;;;19.60;;
10845;SDS011;5476;51.540;7.186;2023-06-22T11:53:26;23.60;;;21.08;;
10845;SDS011;5476;51.540;7.186;2023-06-22T11:56:37;25.02;;;22.35;;
10845;SDS011;5476;51.540;7.186;2023-06-22T11:58:48;29.65;;;26.45;;
10845;SDS011;5476;51.540;7.186;2023-06-22T12:01:15;27.23;;;24.40;;
10845;SDS011;5476;51.540;7.186;2023-06-22T12:03:43;28.52;;;25.58;;
10845;SDS011;5476;51.540;7.186;2023-06-22T12:06:20;27.00;;;24.15;;
10845;SDS011;5476;51.540;7.186;2023-06-22T12:09:02;27.23;;;24.38;;
10845;SDS011;5476;51.540;7.186;2023-06-22T12:11:31;27.63;;;24.73;;
10845;SDS011;5476;51.540;7.186;2023-06-22T12:13:58;28.48;;;25.63;;
10845;SDS011;5476;51.540;7.186;2023-06-22T12:16:27;28.92;;;25.20;;
10845;SDS011;5476;51.540;7.186;2023-06-22T12:18:55;27.60;;;24.48;;
10845;SDS011;5476;51.540;7.186;2023-06-22T12:21:22;28.67;;;25.70;;
10845;SDS011;5476;51.540;7.186;2023-06-22T12:26:38;30.13;;;26.88;;
10845;SDS011;5476;51.540;7.186;2023-06-22T12:29:05;29.77;;;26.88;;
10845;SDS011;5476;51.540;7.186;2023-06-22T12:31:33;32.28;;;28.48;;
10845;SDS011;5476;51.540;7.186;2023-06-22T12:34:00;29.70;;;26.50;;
10845;SDS011;5476;51.540;7.186;2023-06-22T12:36:27;31.85;;;28.30;;
10845;SDS011;5476;51.540;7.186;2023-06-22T12:38:55;30.25;;;27.30;;
10845;SDS011;5476;51.540;7.186;2023-06-22T12:41:24;31.33;;;28.13;;
10845;SDS011;5476;51.540;7.186;2023-06-22T12:43:52;31.33;;;28.20;;
10845;SDS011;5476;51.540;7.186;2023-06-22T12:46:23;32.83;;;29.40;;
10845;SDS011;5476;51.540;7.186;2023-06-22T12:48:50;31.00;;;27.73;;
10845;SDS011;5476;51.540;7.186;2023-06-22T12:51:21;32.67;;;29.38;;
10845;SDS011;5476;51.540;7.186;2023-06-22T12:54:03;33.13;;;29.27;;
10845;SDS011;5476;51.540;7.186;2023-06-22T12:56:50;34.28;;;30.67;;
10845;SDS011;5476;51.540;7.186;2023-06-22T12:59:21;32.78;;;29.38;;
10845;SDS011;5476;51.540;7.186;2023-06-22T13:01:49;33.08;;;29.65;;
10845;SDS011;5476;51.540;7.186;2023-06-22T13:04:16;35.05;;;31.33;;
10845;SDS011;5476;51.540;7.186;2023-06-22T13:06:46;33.97;;;30.52;;
10845;SDS011;5476;51.540;7.186;2023-06-22T13:09:18;34.28;;;30.67;;
10845;SDS011;5476;51.540;7.186;2023-06-22T13:11:47;36.83;;;32.85;;
10845;SDS011;5476;51.540;7.186;2023-06-22T13:14:23;34.10;;;30.58;;
10845;SDS011;5476;51.540;7.186;2023-06-22T13:16:51;37.88;;;32.05;;
10845;SDS011;5476;51.540;7.186;2023-06-22T13:19:18;35.33;;;31.50;;
10845;SDS011;5476;51.540;7.186;2023-06-22T13:21:46;33.85;;;30.33;;
10845;SDS011;5476;51.540;7.186;2023-06-22T13:24:27;33.78;;;30.17;;
10845;SDS011;5476;51.540;7.186;2023-06-22T13:26:56;30.65;;;27.45;;
10845;SDS011;5476;51.540;7.186;2023-06-22T13:29:27;29.88;;;26.80;;
10845;SDS011;5476;51.540;7.186;2023-06-22T13:31:54;27.95;;;24.95;;
10845;SDS011;5476;51.540;7.186;2023-06-22T13:34:22;27.75;;;24.90;;
10845;SDS011;5476;51.540;7.186;2023-06-22T13:36:49;25.10;;;22.50;;
10845;SDS011;5476;51.540;7.186;2023-06-22T13:39:17;23.13;;;20.80;;
10845;SDS011;5476;51.540;7.186;2023-06-22T13:41:44;24.23;;;21.83;;
10845;SDS011;5476;51.540;7.186;2023-06-22T13:44:13;23.30;;;20.83;;
10845;SDS011;5476;51.540;7.186;2023-06-22T13:46:41;26.25;;;21.48;;
10845;SDS011;5476;51.540;7.186;2023-06-22T13:49:08;24.05;;;21.20;;
10845;SDS011;5476;51.540;7.186;2023-06-22T13:51:36;25.02;;;22.60;;
10845;SDS011;5476;51.540;7.186;2023-06-22T13:54:03;26.35;;;23.35;;
10845;SDS011;5476;51.540;7.186;2023-06-22T13:56:31;24.80;;;22.17;;
10845;SDS011;5476;51.540;7.186;2023-06-22T13:58:59;22.48;;;20.20;;
10845;SDS011;5476;51.540;7.186;2023-06-22T14:01:28;19.52;;;17.65;;
10845;SDS011;5476;51.540;7.186;2023-06-22T14:03:56;17.80;;;15.98;;
10845;SDS011;5476;51.540;7.186;2023-06-22T14:06:23;19.15;;;17.17;;
10845;SDS011;5476;51.540;7.186;2023-06-22T14:08:51;19.30;;;17.30;;
10845;SDS011;5476;51.540;7.186;2023-06-22T14:11:18;19.05;;;17.17;;
10845;SDS011;5476;51.540;7.186;2023-06-22T14:13:46;18.52;;;16.67;;
10845;SDS011;5476;51.540;7.186;2023-06-22T14:16:13;18.52;;;16.70;;
10845;SDS011;5476;51.540;7.186;2023-06-22T14:18:44;18.33;;;16.42;;
10845;SDS011;5476;51.540;7.186;2023-06-22T14:21:25;19.30;;;17.38;;
10845;SDS011;5476;51.540;7.186;2023-06-22T14:23:56;16.92;;;15.23;;
10845;SDS011;5476;51.540;7.186;2023-06-22T14:26:23;16.83;;;15.07;;
10845;SDS011;5476;51.540;7.186;2023-06-22T14:28:51;16.88;;;15.18;;
10845;SDS011;5476;51.540;7.186;2023-06-22T14:31:19;15.75;;;14.15;;
10845;SDS011;5476;51.540;7.186;2023-06-22T14:33:49;15.55;;;13.95;;
10845;SDS011;5476;51.540;7.186;2023-06-22T14:36:16;16.05;;;14.40;;
10845;SDS011;5476;51.540;7.186;2023-06-22T14:38:44;14.30;;;12.88;;
10845;SDS011;5476;51.540;7.186;2023-06-22T14:41:12;14.55;;;13.20;;
10845;SDS011;5476;51.540;7.186;2023-06-22T14:43:43;13.95;;;12.52;;
10845;SDS011;5476;51.540;7.186;2023-06-22T14:46:12;15.75;;;14.25;;
10845;SDS011;5476;51.540;7.186;2023-06-22T14:48:40;15.55;;;13.95;;
10845;SDS011;5476;51.540;7.186;2023-06-22T14:51:10;16.20;;;14.15;;
10845;SDS011;5476;51.540;7.186;2023-06-22T14:53:41;15.88;;;14.00;;
10845;SDS011;5476;51.540;7.186;2023-06-22T14:56:09;14.98;;;13.48;;
10845;SDS011;5476;51.540;7.186;2023-06-22T14:58:39;16.02;;;14.43;;
10845;SDS011;5476;51.540;7.186;2023-06-22T15:01:10;15.77;;;14.27;;
10845;SDS011;5476;51.540;7.186;2023-06-22T15:03:38;15.93;;;14.48;;
10845;SDS011;5476;51.540;7.186;2023-06-22T15:06:06;17.02;;;15.30;;
10845;SDS011;5476;51.540;7.186;2023-06-22T15:08:36;16.58;;;15.07;;
10845;SDS011;5476;51.540;7.186;2023-06-22T15:11:04;17.70;;;16.00;;
10845;SDS011;5476;51.540;7.186;2023-06-22T15:13:32;20.88;;;17.20;;
10845;SDS011;5476;51.540;7.186;2023-06-22T15:16:00;19.20;;;17.17;;
10845;SDS011;5476;51.540;7.186;2023-06-22T15:18:28;20.02;;;17.23;;
10845;SDS011;5476;51.540;7.186;2023-06-22T15:20:58;19.65;;;17.55;;
10845;SDS011;5476;51.540;7.186;2023-06-22T15:23:27;19.55;;;17.52;;
10845;SDS011;5476;51.540;7.186;2023-06-22T15:25:56;19.05;;;17.25;;
10845;SDS011;5476;51.540;7.186;2023-06-22T15:28:28;18.40;;;16.50;;
10845;SDS011;5476;51.540;7.186;2023-06-22T15:30:57;17.98;;;16.05;;
10845;SDS011;5476;51.540;7.186;2023-06-22T15:33:27;16.90;;;15.18;;
10845;SDS011;5476;51.540;7.186;2023-06-22T15:35:57;16.17;;;14.48;;
10845;SDS011;5476;51.540;7.186;2023-06-22T15:38:28;14.80;;;13.27;;
10845;SDS011;5476;51.540;7.186;2023-06-22T15:40:58;14.35;;;12.95;;
10845;SDS011;5476;51.540;7.186;2023-06-22T15:43:25;14.27;;;12.93;;
10845;SDS011;5476;51.540;7.186;2023-06-22T15:45:53;16.52;;;14.52;;
10845;SDS011;5476;51.540;7.186;2023-06-22T15:48:20;20.75;;;14.98;;
10845;SDS011;5476;51.540;7.186;2023-06-22T15:50:50;19.15;;;15.05;;
10845;SDS011;5476;51.540;7.186;2023-06-22T15:53:20;17.90;;;15.23;;
10845;SDS011;5476;51.540;7.186;2023-06-22T15:55:48;18.20;;;15.27;;
10845;SDS011;5476;51.540;7.186;2023-06-22T15:58:16;17.90;;;15.52;;
10845;SDS011;5476;51.540;7.186;2023-06-22T16:00:44;18.27;;;16.15;;
10845;SDS011;5476;51.540;7.186;2023-06-22T16:03:14;21.88;;;17.63;;
10845;SDS011;5476;51.540;7.186;2023-06-22T16:05:41;18.52;;;16.35;;
10845;SDS011;5476;51.540;7.186;2023-06-22T16:08:12;20.90;;;16.95;;
10845;SDS011;5476;51.540;7.186;2023-06-22T16:10:39;17.73;;;15.75;;
10845;SDS011;5476;51.540;7.186;2023-06-22T16:13:07;17.73;;;15.38;;
10845;SDS011;5476;51.540;7.186;2023-06-22T16:15:39;18.55;;;16.60;;
10845;SDS011;5476;51.540;7.186;2023-06-22T16:18:06;23.88;;;17.98;;
10845;SDS011;5476;51.540;7.186;2023-06-22T16:20:38;22.73;;;18.05;;
10845;SDS011;5476;51.540;7.186;2023-06-22T16:23:05;21.17;;;17.10;;
10845;SDS011;5476;51.540;7.186;2023-06-22T16:25:32;20.17;;;16.92;;
10845;SDS011;5476;51.540;7.186;2023-06-22T16:28:00;19.55;;;16.40;;
10845;SDS011;5476;51.540;7.186;2023-06-22T16:30:28;20.45;;;17.65;;
10845;SDS011;5476;51.540;7.186;2023-06-22T16:32:57;17.95;;;14.88;;
10845;SDS011;5476;51.540;7.186;2023-06-22T16:35:25;17.70;;;15.90;;
10845;SDS011;5476;51.540;7.186;2023-06-22T16:37:53;17.67;;;15.85;;
10845;SDS011;5476;51.540;7.186;2023-06-22T16:40:21;18.00;;;15.10;;
10845;SDS011;5476;51.540;7.186;2023-06-22T16:42:49;16.85;;;15.15;;
10845;SDS011;5476;51.540;7.186;2023-06-22T16:45:17;19.65;;;15.88;;
10845;SDS011;5476;51.540;7.186;2023-06-22T16:47:47;16.77;;;15.05;;
10845;SDS011;5476;51.540;7.186;2023-06-22T16:50:22;17.52;;;15.10;;
10845;SDS011;5476;51.540;7.186;2023-06-22T16:52:52;16.77;;;15.05;;
10845;SDS011;5476;51.540;7.186;2023-06-22T16:55:40;17.00;;;14.73;;
10845;SDS011;5476;51.540;7.186;2023-06-22T16:58:09;16.63;;;14.88;;
10845;SDS011;5476;51.540;7.186;2023-06-22T17:00:49;20.85;;;15.88;;
10845;SDS011;5476;51.540;7.186;2023-06-22T17:03:54;16.67;;;14.88;;
10845;SDS011;5476;51.540;7.186;2023-06-22T17:06:33;17.02;;;15.23;;
10845;SDS011;5476;51.540;7.186;2023-06-22T17:09:10;17.85;;;14.77;;
10845;SDS011;5476;51.540;7.186;2023-06-22T17:11:45;17.48;;;15.57;;
10845;SDS011;5476;51.540;7.186;2023-06-22T17:14:17;17.30;;;15.48;;
10845;SDS011;5476;51.540;7.186;2023-06-22T17:16:46;17.13;;;15.20;;
10845;SDS011;5476;51.540;7.186;2023-06-22T17:19:16;17.20;;;15.38;;
10845;SDS011;5476;51.540;7.186;2023-06-22T17:21:47;18.98;;;16.20;;
10845;SDS011;5476;51.540;7.186;2023-06-22T17:24:21;17.20;;;15.27;;
10845;SDS011;5476;51.540;7.186;2023-06-22T17:27:06;17.48;;;15.65;;
10845;SDS011;5476;51.540;7.186;2023-06-22T17:29:34;38.28;;;34.30;;
10845;SDS011;5476;51.540;7.186;2023-06-22T17:32:01;20.27;;;18.23;;
10845;SDS011;5476;51.540;7.186;2023-06-22T17:34:30;30.15;;;26.98;;